Time;durP1;ratioP1;P1;durP2;ratioP2;P2;SDS_P1;SDS_P2;PMS_P1;PMS_P2;Temp;Humidity;BMP_temperature;BMP_pressure;BME280_temperature;BME280_humidity;BME280_pressure;Samples;Min_cycle;Max_cycle;Signal;HPM_P1;HPM_P2
2024/02/25 00:01:39;;;;;;;;;;;;;;;;;;5048202;28;19975;-79
2024/02/25 00:04:05;;;;;;;;;;;;;;;;;;5047785;28;20357;-80
2024/02/25 00:06:31;;;;;;;;;;;;;;;;;;5045927;28;19936;-79
2024/02/25 00:08:57;;;;;;;;;;;;;;;;;;5062449;28;19912;-80
2024/02/25 00:11:22;;;;;;;;;;;;;;;;;;5050934;28;19921;-79
2024/02/25 00:13:48;;;;;;;;;;;;;;;;;;5042533;28;20012;-79
2024/02/25 00:16:14;;;;;;;;;;;;;;;;;;5048348;28;19920;-79
2024/02/25 00:18:40;;;;;;;;;;;;;;;;;;5060977;28;19913;-81
2024/02/25 00:21:06;;;;;;;;;;;;;;;;;;5056042;28;19983;-80
2024/02/25 00:23:32;;;;;;;;;;;;;;;;;;5057674;28;19919;-80
2024/02/25 00:25:58;;;;;;;;;;;;;;;;;;5064190;28;20467;-81
2024/02/25 00:28:24;;;;;;;;;;;;;;;;;;5051926;28;20019;-80
2024/02/25 00:30:50;;;;;;;;;;;;;;;;;;5051078;28;19923;-81
2024/02/25 00:33:16;;;;;;;;;;;;;;;;;;5054316;28;19913;-80
2024/02/25 00:35:41;;;;;;;;;;;;;;;;;;5065164;28;19912;-80
2024/02/25 00:38:09;;;;;;;;;;;;;;;;;;5061747;28;19912;-81
2024/02/25 00:40:35;;;;;;;;;;;;;;;;;;5055549;28;19975;-79
2024/02/25 00:43:01;;;;;;;;;;;;;;;;;;5065786;28;20322;-79
2024/02/25 00:45:27;;;;;;;;;;;;;;;;;;5063280;28;19931;-79
2024/02/25 00:47:52;;;;;;;;;;;;;;;;;;5057744;28;20248;-80
2024/02/25 00:50:18;;;;;;;;;;;;;;;;;;5063651;28;19917;-79
2024/02/25 00:52:44;;;;;;;;;;;;;;;;;;5051021;28;19920;-80
2024/02/25 00:55:10;;;;;;;;;;;;;;;;;;5059327;28;19909;-79
2024/02/25 00:57:38;;;;;;;;;;;;;;;;;;5064677;28;20292;-79
2024/02/25 01:00:03;;;;;;;;;;;;;;;;;;5049765;28;19976;-80
2024/02/25 01:02:29;;;;;;;;;;;;;;;;;;5050868;28;19923;-80
2024/02/25 01:04:55;;;;;;;;;;;;;;;;;;5054650;28;19916;-80
2024/02/25 01:07:21;;;;;;;;;;;;;;;;;;5051358;28;19913;-80
2024/02/25 01:09:47;;;;;;;;;;;;;;;;;;5050732;28;19913;-80
2024/02/25 01:12:13;;;;;;;;;;;;;;;;;;5066877;28;20011;-80
2024/02/25 01:14:41;;;;;;;;;;;;;;;;;;5068539;28;19916;-80
2024/02/25 01:17:07;;;;;;;;;;;;;;;;;;5056004;28;19966;-80
2024/02/25 01:19:32;;;;;;;;;;;;;;;;;;5057176;28;19913;-80
2024/02/25 01:21:58;;;;;;;;;;;;;;;;;;5055496;28;19917;-80
2024/02/25 01:24:24;;;;;;;;;;;;;;;;;;5050407;28;19919;-80
2024/02/25 01:26:50;;;;;;;;;;;;;;;;;;5042980;28;19995;-80
2024/02/25 01:29:16;;;;;;;;;;;;;;;;;;5063874;28;19940;-78
2024/02/25 01:31:42;;;;;;;;;;;;;;;;;;5061022;28;20013;-80
2024/02/25 01:34:08;;;;;;;;;;;;;;;;;;5066535;28;19932;-79
2024/02/25 01:36:34;;;;;;;;;;;;;;;;;;5051617;28;20162;-80
2024/02/25 01:39:00;;;;;;;;;;;;;;;;;;5058901;28;19935;-80
2024/02/25 01:41:26;;;;;;;;;;;;;;;;;;5057016;28;19917;-80
2024/02/25 01:43:52;;;;;;;;;;;;;;;;;;5062989;28;20320;-80
2024/02/25 01:46:17;;;;;;;;;;;;;;;;;;5045004;28;19919;-80
2024/02/25 01:48:45;;;;;;;;;;;;;;;;;;5049315;28;19959;-79
2024/02/25 01:51:11;;;;;;;;;;;;;;;;;;5050456;28;19987;-79
2024/02/25 01:53:37;;;;;;;;;;;;;;;;;;5052910;28;20020;-79
2024/02/25 01:56:03;;;;;;;;;;;;;;;;;;5055918;28;19983;-80
2024/02/25 01:58:29;;;;;;;;;;;;;;;;;;5054877;28;19924;-79
2024/02/25 02:00:54;;;;;;;;;;;;;;;;;;5067862;28;19940;-80
2024/02/25 02:03:20;;;;;;;;;;;;;;;;;;5056899;28;20004;-79
2024/02/25 02:05:46;;;;;;;;;;;;;;;;;;5054188;28;19913;-80
2024/02/25 02:08:12;;;;;;;;;;;;;;;;;;5049416;28;19939;-80
2024/02/25 02:10:38;;;;;;;;;;;;;;;;;;5053183;28;19968;-80
2024/02/25 02:13:05;;;;;;;;;;;;;;;;;;5055718;28;19956;-79
2024/02/25 02:15:31;;;;;;;;;;;;;;;;;;5055290;28;19913;-80
2024/02/25 02:17:56;;;;;;;;;;;;;;;;;;5056745;28;19967;-79
2024/02/25 02:20:22;;;;;;;;;;;;;;;;;;5062476;28;19924;-79
2024/02/25 02:22:48;;;;;;;;;;;;;;;;;;5052390;28;20345;-80
2024/02/25 02:25:15;;;;;;;;;;;;;;;;;;5056661;28;20409;-79
2024/02/25 02:27:41;;;;;;;;;;;;;;;;;;5053973;28;19912;-79
2024/02/25 02:30:07;;;;;;;;;;;;;;;;;;5055946;28;19909;-79
2024/02/25 02:32:33;;;;;;;;;;;;;;;;;;5058156;28;19995;-80
2024/02/25 02:34:59;;;;;;;;;;;;;;;;;;5066741;28;20395;-80
2024/02/25 02:37:24;;;;;;;;;;;;;;;;;;5063322;28;19913;-80
2024/02/25 02:39:50;;;;;;;;;;;;;;;;;;5051209;28;19916;-80
2024/02/25 02:42:16;;;;;;;;;;;;;;;;;;5058835;28;19920;-80
2024/02/25 02:44:45;;;;;;;;;;;;;;;;;;5061136;28;19913;-80
2024/02/25 02:47:11;;;;;;;;;;;;;;;;;;5062524;28;19912;-81
2024/02/25 02:49:37;;;;;;;;;;;;;;;;;;5061947;28;19913;-80
2024/02/25 02:52:03;;;;;;;;;;;;;;;;;;5050578;28;19923;-79
2024/02/25 02:54:29;;;;;;;;;;;;;;;;;;5065243;28;20476;-79
2024/02/25 02:56:55;;;;;;;;;;;;;;;;;;5058702;28;20006;-79
2024/02/25 02:59:21;;;;;;;;;;;;;;;;;;5055168;28;19908;-80
2024/02/25 03:01:46;;;;;;;;;;;;;;;;;;5050107;28;19927;-79
2024/02/25 03:04:12;;;;;;;;;;;;;;;;;;5067275;28;19963;-79
2024/02/25 03:06:38;;;;;;;;;;;;;;;;;;5057903;28;19967;-79
2024/02/25 03:09:04;;;;;;;;;;;;;;;;;;5049142;28;19916;-79
2024/02/25 03:11:30;;;;;;;;;;;;;;;;;;5060293;28;20011;-80
2024/02/25 03:13:56;;;;;;;;;;;;;;;;;;5059528;28;19920;-80
2024/02/25 03:16:21;;;;;;;;;;;;;;;;;;5054759;28;20294;-80
2024/02/25 03:18:47;;;;;;;;;;;;;;;;;;5058283;28;19948;-80
2024/02/25 03:21:13;;;;;;;;;;;;;;;;;;5045714;28;19987;-80
2024/02/25 03:23:39;;;;;;;;;;;;;;;;;;5054966;28;19917;-79
2024/02/25 03:26:05;;;;;;;;;;;;;;;;;;5055728;28;19912;-80
2024/02/25 03:28:31;;;;;;;;;;;;;;;;;;5062518;28;19913;-80
2024/02/25 03:30:57;;;;;;;;;;;;;;;;;;5059764;28;19923;-79
2024/02/25 03:33:22;;;;;;;;;;;;;;;;;;5040946;28;19917;-79
2024/02/25 03:35:48;;;;;;;;;;;;;;;;;;5048723;28;19917;-79
2024/02/25 03:38:14;;;;;;;;;;;;;;;;;;5057371;28;19947;-80
2024/02/25 03:40:40;;;;;;;;;;;;;;;;;;5048943;28;19917;-80
2024/02/25 03:43:06;;;;;;;;;;;;;;;;;;5055357;28;19919;-80
2024/02/25 03:45:32;;;;;;;;;;;;;;;;;;5051807;28;19991;-80
2024/02/25 03:47:58;;;;;;;;;;;;;;;;;;5058862;28;20374;-80
2024/02/25 03:50:23;;;;;;;;;;;;;;;;;;5064515;28;19912;-80
2024/02/25 03:52:49;;;;;;;;;;;;;;;;;;5056297;28;19928;-80
2024/02/25 03:55:15;;;;;;;;;;;;;;;;;;5055347;28;19959;-80
2024/02/25 03:57:41;;;;;;;;;;;;;;;;;;5065743;28;19919;-80
2024/02/25 04:00:08;;;;;;;;;;;;;;;;;;5060089;28;19929;-80
2024/02/25 04:02:34;;;;;;;;;;;;;;;;;;5055358;28;19940;-80
2024/02/25 04:04:59;;;;;;;;;;;;;;;;;;5053239;28;19951;-81
2024/02/25 04:07:25;;;;;;;;;;;;;;;;;;5050483;28;19974;-80
2024/02/25 04:09:51;;;;;;;;;;;;;;;;;;5048979;28;19923;-80
2024/02/25 04:12:17;;;;;;;;;;;;;;;;;;5058099;28;19972;-80
2024/02/25 04:14:43;;;;;;;;;;;;;;;;;;5050781;28;19966;-80
2024/02/25 04:17:09;;;;;;;;;;;;;;;;;;5053819;28;19912;-80
2024/02/25 04:19:34;;;;;;;;;;;;;;;;;;5044338;28;20012;-80
2024/02/25 04:22:01;;;;;;;;;;;;;;;;;;5055731;28;19986;-80
2024/02/25 04:24:26;;;;;;;;;;;;;;;;;;5057115;28;20008;-79
2024/02/25 04:26:52;;;;;;;;;;;;;;;;;;5051264;28;20003;-80
2024/02/25 04:29:18;;;;;;;;;;;;;;;;;;5050253;28;19917;-80
2024/02/25 04:31:47;;;;;;;;;;;;;;;;;;5049415;28;20375;-79
2024/02/25 04:34:13;;;;;;;;;;;;;;;;;;5054728;28;19940;-79
2024/02/25 04:36:39;;;;;;;;;;;;;;;;;;5050431;28;20371;-80
2024/02/25 04:39:05;;;;;;;;;;;;;;;;;;5058710;28;19995;-80
2024/02/25 04:41:31;;;;;;;;;;;;;;;;;;5052263;28;19917;-80
2024/02/25 04:43:57;;;;;;;;;;;;;;;;;;5051259;28;19913;-80
2024/02/25 04:46:23;;;;;;;;;;;;;;;;;;5049033;28;20318;-80
2024/02/25 04:48:50;;;;;;;;;;;;;;;;;;5056336;28;20326;-81
2024/02/25 04:51:16;;;;;;;;;;;;;;;;;;5047199;28;19916;-81
2024/02/25 04:53:42;;;;;;;;;;;;;;;;;;5046995;28;19924;-81
2024/02/25 04:56:07;;;;;;;;;;;;;;;;;;5034660;28;19912;-81
2024/02/25 04:58:33;;;;;;;;;;;;;;;;;;5061215;28;20404;-81
2024/02/25 05:00:59;;;;;;;;;;;;;;;;;;5054405;28;19929;-81
2024/02/25 05:03:25;;;;;;;;;;;;;;;;;;5047022;28;20252;-80
2024/02/25 05:05:51;;;;;;;;;;;;;;;;;;5048091;28;19951;-80
2024/02/25 05:08:17;;;;;;;;;;;;;;;;;;5051471;28;19913;-79
2024/02/25 05:10:43;;;;;;;;;;;;;;;;;;5051354;28;19913;-79
2024/02/25 05:13:08;;;;;;;;;;;;;;;;;;5050665;28;19913;-80
2024/02/25 05:15:34;;;;;;;;;;;;;;;;;;5059362;28;19913;-79
2024/02/25 05:18:00;;;;;;;;;;;;;;;;;;5041859;28;19940;-80
2024/02/25 05:20:26;;;;;;;;;;;;;;;;;;5051142;28;19917;-80
2024/02/25 05:22:52;;;;;;;;;;;;;;;;;;5054829;28;19909;-80
2024/02/25 05:25:18;;;;;;;;;;;;;;;;;;5051460;28;20049;-81
2024/02/25 05:27:44;;;;;;;;;;;;;;;;;;5050678;28;19913;-80
2024/02/25 05:30:09;;;;;;;;;;;;;;;;;;5056373;28;19912;-80
2024/02/25 05:32:36;;;;;;;;;;;;;;;;;;5059433;28;19916;-80
2024/02/25 05:35:02;;;;;;;;;;;;;;;;;;5051051;28;19909;-80
2024/02/25 05:37:28;;;;;;;;;;;;;;;;;;5051399;28;20007;-79
2024/02/25 05:39:53;;;;;;;;;;;;;;;;;;5054719;28;20008;-80
2024/02/25 05:42:19;;;;;;;;;;;;;;;;;;5050763;28;20330;-80
2024/02/25 05:44:45;;;;;;;;;;;;;;;;;;5056398;28;19909;-80
2024/02/25 05:47:11;;;;;;;;;;;;;;;;;;5050819;28;19912;-81
2024/02/25 05:49:37;;;;;;;;;;;;;;;;;;5056968;28;19912;-81
2024/02/25 05:52:03;;;;;;;;;;;;;;;;;;5057852;28;20055;-81
2024/02/25 05:54:29;;;;;;;;;;;;;;;;;;5050774;28;20019;-80
2024/02/25 05:56:55;;;;;;;;;;;;;;;;;;5053350;28;19920;-80
2024/02/25 05:59:20;;;;;;;;;;;;;;;;;;5070534;28;19909;-80
2024/02/25 06:01:46;;;;;;;;;;;;;;;;;;5059492;28;19963;-80
2024/02/25 06:04:13;;;;;;;;;;;;;;;;;;5065325;28;19917;-80
2024/02/25 06:06:39;;;;;;;;;;;;;;;;;;5053777;28;19923;-81
2024/02/25 06:09:05;;;;;;;;;;;;;;;;;;5042792;28;19913;-80
2024/02/25 06:11:31;;;;;;;;;;;;;;;;;;5050486;28;19944;-80
2024/02/25 06:13:57;;;;;;;;;;;;;;;;;;5056438;28;19916;-80
2024/02/25 06:16:23;;;;;;;;;;;;;;;;;;5068764;28;19924;-80
2024/02/25 06:18:49;;;;;;;;;;;;;;;;;;5053451;28;19971;-81
2024/02/25 06:21:15;;;;;;;;;;;;;;;;;;5032262;28;19917;-80
2024/02/25 06:23:41;;;;;;;;;;;;;;;;;;5049060;28;19983;-80
2024/02/25 06:26:07;;;;;;;;;;;;;;;;;;5049768;28;19916;-80
2024/02/25 06:28:33;;;;;;;;;;;;;;;;;;5047012;28;20004;-81
2024/02/25 06:30:59;;;;;;;;;;;;;;;;;;5048993;28;20391;-80
2024/02/25 06:33:25;;;;;;;;;;;;;;;;;;5056363;28;19913;-80
2024/02/25 06:35:53;;;;;;;;;;;;;;;;;;5055994;28;19920;-81
2024/02/25 06:38:18;;;;;;;;;;;;;;;;;;5055982;28;19923;-80
2024/02/25 06:40:44;;;;;;;;;;;;;;;;;;5049492;28;20302;-81
2024/02/25 06:43:12;;;;;;;;;;;;;;;;;;5050087;28;19982;-80
2024/02/25 06:45:38;;;;;;;;;;;;;;;;;;5049448;28;19913;-81
2024/02/25 06:48:04;;;;;;;;;;;;;;;;;;5040353;28;19967;-81
2024/02/25 06:50:29;;;;;;;;;;;;;;;;;;5049513;28;20009;-81
2024/02/25 06:52:55;;;;;;;;;;;;;;;;;;5048519;28;19928;-81
2024/02/25 06:55:21;;;;;;;;;;;;;;;;;;5054132;28;20443;-83
2024/02/25 06:57:47;;;;;;;;;;;;;;;;;;5051885;28;19919;-81
2024/02/25 07:00:14;;;;;;;;;;;;;;;;;;5054892;28;19924;-80
2024/02/25 07:02:40;;;;;;;;;;;;;;;;;;5049029;28;19923;-79
2024/02/25 07:05:06;;;;;;;;;;;;;;;;;;5048499;28;19913;-79
2024/02/25 07:07:32;;;;;;;;;;;;;;;;;;5056911;28;20054;-80
2024/02/25 07:09:58;;;;;;;;;;;;;;;;;;5051830;28;20007;-80
2024/02/25 07:12:23;;;;;;;;;;;;;;;;;;5049101;28;19913;-79
2024/02/25 07:14:49;;;;;;;;;;;;;;;;;;5049124;28;20010;-80
2024/02/25 07:17:15;;;;;;;;;;;;;;;;;;5048456;28;20371;-80
2024/02/25 07:19:41;;;;;;;;;;;;;;;;;;5048716;28;20007;-80
2024/02/25 07:22:07;;;;;;;;;;;;;;;;;;5046080;28;20501;-80
2024/02/25 07:24:33;;;;;;;;;;;;;;;;;;5048802;28;19908;-80
2024/02/25 07:26:59;;;;;;;;;;;;;;;;;;5061780;28;19925;-80
2024/02/25 07:29:24;;;;;;;;;;;;;;;;;;5049543;28;19912;-81
2024/02/25 07:31:50;;;;;;;;;;;;;;;;;;5053453;28;19921;-81
2024/02/25 07:34:16;;;;;;;;;;;;;;;;;;5048397;28;19913;-81
2024/02/25 07:36:42;;;;;;;;;;;;;;;;;;5030435;28;19967;-81
2024/02/25 07:39:08;;;;;;;;;;;;;;;;;;5050571;28;19912;-81
2024/02/25 07:41:34;;;;;;;;;;;;;;;;;;5048112;28;19913;-81
2024/02/25 07:44:00;;;;;;;;;;;;;;;;;;5047903;28;19917;-81
2024/02/25 07:46:27;;;;;;;;;;;;;;;;;;5047989;28;20487;-81
2024/02/25 07:48:52;;;;;;;;;;;;;;;;;;5047551;28;20436;-81
2024/02/25 07:51:18;;;;;;;;;;;;;;;;;;5047758;28;20015;-81
2024/02/25 07:53:45;;;;;;;;;;;;;;;;;;5049134;28;19913;-81
2024/02/25 07:56:11;;;;;;;;;;;;;;;;;;5053916;28;20388;-79
2024/02/25 07:58:37;;;;;;;;;;;;;;;;;;5055548;28;20206;-81
2024/02/25 08:01:03;;;;;;;;;;;;;;;;;;5047084;28;20376;-81
2024/02/25 08:03:29;;;;;;;;;;;;;;;;;;5046640;28;19917;-81
2024/02/25 08:05:55;;;;;;;;;;;;;;;;;;5049517;28;19920;-81
2024/02/25 08:08:20;;;;;;;;;;;;;;;;;;5051460;28;19912;-81
2024/02/25 08:10:46;;;;;;;;;;;;;;;;;;5052811;28;19923;-81
2024/02/25 08:13:12;;;;;;;;;;;;;;;;;;5054602;28;19999;-81
2024/02/25 08:15:38;;;;;;;;;;;;;;;;;;5062462;28;19913;-81
2024/02/25 08:18:04;;;;;;;;;;;;;;;;;;5048394;28;19923;-81
2024/02/25 08:20:30;;;;;;;;;;;;;;;;;;5063414;28;19959;-81
2024/02/25 08:22:56;;;;;;;;;;;;;;;;;;5056405;28;19920;-81
2024/02/25 08:25:21;;;;;;;;;;;;;;;;;;5053560;28;19976;-81
2024/02/25 08:27:47;;;;;;;;;;;;;;;;;;5048804;28;19913;-81
2024/02/25 08:30:13;;;;;;;;;;;;;;;;;;5059239;28;20011;-81
2024/02/25 08:32:39;;;;;;;;;;;;;;;;;;5047447;28;19917;-81
2024/02/25 08:35:06;;;;;;;;;;;;;;;;;;5046255;28;19948;-81
2024/02/25 08:37:32;;;;;;;;;;;;;;;;;;5046573;28;20007;-82
2024/02/25 08:39:58;;;;;;;;;;;;;;;;;;5053211;28;20175;-81
2024/02/25 08:42:25;;;;;;;;;;;;;;;;;;5046429;28;19912;-80
2024/02/25 08:44:51;;;;;;;;;;;;;;;;;;5050607;28;19920;-80
2024/02/25 08:47:17;;;;;;;;;;;;;;;;;;5058515;28;20260;-80
2024/02/25 08:49:42;;;;;;;;;;;;;;;;;;5050939;28;19967;-81
2024/02/25 08:52:08;;;;;;;;;;;;;;;;;;5049671;28;20335;-83
2024/02/25 08:54:34;;;;;;;;;;;;;;;;;;5061484;28;19913;-84
2024/02/25 08:57:00;;;;;;;;;;;;;;;;;;5055764;28;19913;-80
2024/02/25 08:59:26;;;;;;;;;;;;;;;;;;5050233;28;19917;-82
2024/02/25 09:01:52;;;;;;;;;;;;;;;;;;5052922;28;19925;-84
2024/02/25 09:04:18;;;;;;;;;;;;;;;;;;5055654;28;19960;-89
2024/02/25 09:06:44;;;;;;;;;;;;;;;;;;5053494;28;19912;-84
2024/02/25 09:09:10;;;;;;;;;;;;;;;;;;5056303;28;20331;-83
2024/02/25 09:11:36;;;;;;;;;;;;;;;;;;5050255;28;20608;-82
2024/02/25 09:14:02;;;;;;;;;;;;;;;;;;5057168;28;19916;-83
2024/02/25 09:16:28;;;;;;;;;;;;;;;;;;5054360;28;20498;-83
2024/02/25 09:18:54;;;;;;;;;;;;;;;;;;5062908;28;19964;-83
2024/02/25 09:21:20;;;;;;;;;;;;;;;;;;5050175;28;19916;-83
2024/02/25 09:23:46;;;;;;;;;;;;;;;;;;5050660;28;19913;-82
2024/02/25 09:26:11;;;;;;;;;;;;;;;;;;5050159;28;19916;-86
2024/02/25 09:28:37;;;;;;;;;;;;;;;;;;5036041;28;20418;-83
2024/02/25 09:31:03;;;;;;;;;;;;;;;;;;5049622;28;20276;-83
2024/02/25 09:33:34;;;;;;;;;;;;;;;;;;5060708;28;19921;-83
2024/02/25 09:36:00;;;;;;;;;;;;;;;;;;5052357;28;19923;-82
2024/02/25 09:38:28;;;;;;;;;;;;;;;;;;5055289;28;19913;-87
2024/02/25 09:40:54;;;;;;;;;;;;;;;;;;5064282;28;19963;-89
2024/02/25 09:43:22;;;;;;;;;;;;;;;;;;5072475;28;19921;-87
2024/02/25 09:45:48;;;;;;;;;;;;;;;;;;5057836;28;19920;-90
2024/02/25 09:48:14;;;;;;;;;;;;;;;;;;5056169;28;19917;-91
2024/02/25 09:50:40;;;;;;;;;;;;;;;;;;5057769;28;19939;-90
2024/02/25 09:53:06;;;;;;;;;;;;;;;;;;5060075;28;19999;-89
2024/02/25 09:55:35;;;;;;;;;;;;;;;;;;5067453;28;19955;-91
2024/02/25 09:58:01;;;;;;;;;;;;;;;;;;5059159;28;19916;-89
2024/02/25 10:00:27;;;;;;;;;;;;;;;;;;5057049;28;19933;-90
2024/02/25 10:02:53;;;;;;;;;;;;;;;;;;5061688;28;19947;-88
2024/02/25 10:05:19;;;;;;;;;;;;;;;;;;5052104;28;19921;-83
2024/02/25 10:07:45;;;;;;;;;;;;;;;;;;5050172;28;19913;-85
2024/02/25 10:10:12;;;;;;;;;;;;;;;;;;5049405;28;19916;-84
2024/02/25 10:12:38;;;;;;;;;;;;;;;;;;5057230;28;19995;-85
2024/02/25 10:15:03;;;;;;;;;;;;;;;;;;5057190;28;19991;-85
2024/02/25 10:17:33;;;;;;;;;;;;;;;;;;5058830;28;19920;-84
2024/02/25 10:20:01;;;;;;;;;;;;;;;;;;5046054;28;20330;-84
2024/02/25 10:22:29;;;;;;;;;;;;;;;;;;5054311;28;19980;-89
2024/02/25 10:24:54;;;;;;;;;;;;;;;;;;5063215;28;19928;-87
2024/02/25 10:27:22;;;;;;;;;;;;;;;;;;5054306;28;19909;-87
2024/02/25 10:29:48;;;;;;;;;;;;;;;;;;5068091;28;19912;-87
2024/02/25 10:32:14;;;;;;;;;;;;;;;;;;5054659;28;19943;-88
2024/02/25 10:34:39;;;;;;;;;;;;;;;;;;5048911;28;19915;-88
2024/02/25 10:37:05;;;;;;;;;;;;;;;;;;5050406;28;20359;-82
2024/02/25 10:39:31;;;;;;;;;;;;;;;;;;5048797;28;20322;-85
2024/02/25 10:41:57;;;;;;;;;;;;;;;;;;5047515;28;19920;-89
2024/02/25 10:44:23;;;;;;;;;;;;;;;;;;5064316;28;19916;-90
2024/02/25 10:46:49;;;;;;;;;;;;;;;;;;5077789;28;19912;-90
2024/02/25 10:49:15;;;;;;;;;;;;;;;;;;5056885;28;19994;-90
2024/02/25 10:51:41;;;;;;;;;;;;;;;;;;5064170;28;20370;-84
2024/02/25 10:54:09;;;;;;;;;;;;;;;;;;5045100;28;19984;-83
2024/02/25 10:56:35;;;;;;;;;;;;;;;;;;5046284;28;20394;-83
2024/02/25 10:59:01;;;;;;;;;;;;;;;;;;5049551;28;20367;-82
2024/02/25 11:01:27;;;;;;;;;;;;;;;;;;5049236;28;19924;-83
2024/02/25 11:03:53;;;;;;;;;;;;;;;;;;5052106;28;19966;-84
2024/02/25 11:06:19;;;;;;;;;;;;;;;;;;5052008;28;19917;-84
2024/02/25 11:08:45;;;;;;;;;;;;;;;;;;5050590;28;19947;-92
2024/02/25 11:11:10;;;;;;;;;;;;;;;;;;5040867;28;19913;-80
2024/02/25 11:13:36;;;;;;;;;;;;;;;;;;5048710;28;19913;-78
2024/02/25 11:16:03;;;;;;;;;;;;;;;;;;5042083;28;20013;-80
2024/02/25 11:18:29;;;;;;;;;;;;;;;;;;5047097;28;19999;-81
2024/02/25 11:20:55;;;;;;;;;;;;;;;;;;5049046;28;20439;-85
2024/02/25 11:23:21;;;;;;;;;;;;;;;;;;5049144;28;19967;-79
2024/02/25 11:25:47;;;;;;;;;;;;;;;;;;5048450;28;19916;-77
2024/02/25 11:28:13;;;;;;;;;;;;;;;;;;5045687;28;20031;-80
2024/02/25 11:30:39;;;;;;;;;;;;;;;;;;5042391;28;19936;-79
2024/02/25 11:33:06;;;;;;;;;;;;;;;;;;5053496;28;19923;-81
2024/02/25 11:35:32;;;;;;;;;;;;;;;;;;5059761;28;19916;-87
2024/02/25 11:37:57;;;;;;;;;;;;;;;;;;5055574;28;19917;-79
2024/02/25 11:40:23;;;;;;;;;;;;;;;;;;5049288;28;19921;-77
2024/02/25 11:42:49;;;;;;;;;;;;;;;;;;5050284;28;19958;-77
2024/02/25 11:45:17;;;;;;;;;;;;;;;;;;5048146;28;21377;-78
2024/02/25 11:47:44;;;;;;;;;;;;;;;;;;5052860;28;19913;-76
2024/02/25 11:50:10;;;;;;;;;;;;;;;;;;5049924;28;20479;-79
2024/02/25 11:52:37;;;;;;;;;;;;;;;;;;5046895;28;19960;-76
2024/02/25 11:55:03;;;;;;;;;;;;;;;;;;5049119;28;19912;-76
2024/02/25 11:57:29;;;;;;;;;;;;;;;;;;5054193;28;20426;-76
2024/02/25 11:59:55;;;;;;;;;;;;;;;;;;5049577;28;20330;-76
2024/02/25 12:02:21;;;;;;;;;;;;;;;;;;5048149;28;19917;-76
2024/02/25 12:04:47;;;;;;;;;;;;;;;;;;5049762;28;19935;-76
2024/02/25 12:07:13;;;;;;;;;;;;;;;;;;5051284;28;19923;-77
2024/02/25 12:09:39;;;;;;;;;;;;;;;;;;5053404;28;19920;-75
2024/02/25 12:12:05;;;;;;;;;;;;;;;;;;5042255;28;19913;-76
2024/02/25 12:14:30;;;;;;;;;;;;;;;;;;5048819;28;19912;-75
2024/02/25 12:16:56;;;;;;;;;;;;;;;;;;5050035;28;19921;-76
2024/02/25 12:19:22;;;;;;;;;;;;;;;;;;5057975;28;20171;-77
2024/02/25 12:21:48;;;;;;;;;;;;;;;;;;5056497;28;19924;-76
2024/02/25 12:24:14;;;;;;;;;;;;;;;;;;5048266;28;19921;-76
2024/02/25 12:26:40;;;;;;;;;;;;;;;;;;5047824;28;19913;-76
2024/02/25 12:29:05;;;;;;;;;;;;;;;;;;5049906;28;19919;-76
2024/02/25 12:31:31;;;;;;;;;;;;;;;;;;5047717;28;20011;-76
2024/02/25 12:33:57;;;;;;;;;;;;;;;;;;5041046;28;19927;-75
2024/02/25 12:36:23;;;;;;;;;;;;;;;;;;5047017;28;19912;-76
2024/02/25 12:38:49;;;;;;;;;;;;;;;;;;5050190;28;20460;-76
2024/02/25 12:41:15;;;;;;;;;;;;;;;;;;5055914;28;20287;-76
2024/02/25 12:43:51;;;;;;;;;;;;;;;;;;5050768;28;19921;-76
2024/02/25 12:46:17;;;;;;;;;;;;;;;;;;5047240;28;19917;-76
2024/02/25 12:48:42;;;;;;;;;;;;;;;;;;5051026;28;19913;-77
2024/02/25 12:51:08;;;;;;;;;;;;;;;;;;5044270;28;19916;-76
2024/02/25 12:53:34;;;;;;;;;;;;;;;;;;5051179;28;19916;-75
2024/02/25 12:56:00;;;;;;;;;;;;;;;;;;5042994;28;19917;-76
2024/02/25 12:58:26;;;;;;;;;;;;;;;;;;5046501;28;19919;-76
2024/02/25 13:00:53;;;;;;;;;;;;;;;;;;5057445;28;19920;-76
2024/02/25 13:03:19;;;;;;;;;;;;;;;;;;5045169;28;19928;-76
2024/02/25 13:05:45;;;;;;;;;;;;;;;;;;5051086;28;19913;-82
2024/02/25 13:08:11;;;;;;;;;;;;;;;;;;5051259;28;19921;-76
2024/02/25 13:10:39;;;;;;;;;;;;;;;;;;5050815;28;20494;-76
2024/02/25 13:13:05;;;;;;;;;;;;;;;;;;5044016;28;20437;-76
2024/02/25 13:15:31;;;;;;;;;;;;;;;;;;5055122;28;19919;-76
2024/02/25 13:17:59;;;;;;;;;;;;;;;;;;5054910;28;19912;-76
2024/02/25 13:20:24;;;;;;;;;;;;;;;;;;5049615;28;19917;-77
2024/02/25 13:22:51;;;;;;;;;;;;;;;;;;5052090;28;19987;-78
2024/02/25 13:25:18;;;;;;;;;;;;;;;;;;5048981;28;19921;-77
2024/02/25 13:27:44;;;;;;;;;;;;;;;;;;5049115;28;19913;-75
2024/02/25 13:30:10;;;;;;;;;;;;;;;;;;5054574;28;19988;-76
2024/02/25 13:32:36;;;;;;;;;;;;;;;;;;5051244;28;19920;-75
2024/02/25 13:35:03;;;;;;;;;;;;;;;;;;5049955;28;19920;-77
2024/02/25 13:37:29;;;;;;;;;;;;;;;;;;5054490;28;19916;-79
2024/02/25 13:39:55;;;;;;;;;;;;;;;;;;5051778;28;19912;-78
2024/02/25 13:42:21;;;;;;;;;;;;;;;;;;5050366;28;19924;-78
2024/02/25 13:44:48;;;;;;;;;;;;;;;;;;5063341;28;19913;-77
2024/02/25 13:47:14;;;;;;;;;;;;;;;;;;5050713;28;20002;-77
2024/02/25 13:49:39;;;;;;;;;;;;;;;;;;5054306;28;19920;-78
2024/02/25 13:52:05;;;;;;;;;;;;;;;;;;5048289;28;19991;-82
2024/02/25 13:54:31;;;;;;;;;;;;;;;;;;5053798;28;19939;-78
2024/02/25 13:56:57;;;;;;;;;;;;;;;;;;5052546;28;19966;-79
2024/02/25 13:59:26;;;;;;;;;;;;;;;;;;5054964;28;20394;-80
2024/02/25 14:01:51;;;;;;;;;;;;;;;;;;5052220;28;19924;-78
2024/02/25 14:04:18;;;;;;;;;;;;;;;;;;5050840;28;20305;-80
2024/02/25 14:06:44;;;;;;;;;;;;;;;;;;5044313;28;19913;-80
2024/02/25 14:09:11;;;;;;;;;;;;;;;;;;5052697;28;19982;-80
2024/02/25 14:11:37;;;;;;;;;;;;;;;;;;5049294;28;19909;-79
2024/02/25 14:14:09;;;;;;;;;;;;;;;;;;5051309;28;19919;-81
2024/02/25 14:16:34;;;;;;;;;;;;;;;;;;5049284;28;19913;-79
2024/02/25 14:19:00;;;;;;;;;;;;;;;;;;5056649;28;19916;-79
2024/02/25 14:21:28;;;;;;;;;;;;;;;;;;5059259;28;19920;-78
2024/02/25 14:23:54;;;;;;;;;;;;;;;;;;5052888;28;19908;-78
2024/02/25 14:26:21;;;;;;;;;;;;;;;;;;5056819;28;20315;-79
2024/02/25 14:28:47;;;;;;;;;;;;;;;;;;5052643;28;19909;-79
2024/02/25 14:31:13;;;;;;;;;;;;;;;;;;5053162;28;20498;-79
2024/02/25 14:33:40;;;;;;;;;;;;;;;;;;5043760;28;20385;-82
2024/02/25 14:36:06;;;;;;;;;;;;;;;;;;5049086;28;19913;-81
2024/02/25 14:38:32;;;;;;;;;;;;;;;;;;5058281;28;19920;-81
2024/02/25 14:40:57;;;;;;;;;;;;;;;;;;5049745;28;19928;-87
2024/02/25 14:43:24;;;;;;;;;;;;;;;;;;5032992;28;19909;-87
2024/02/25 14:45:50;;;;;;;;;;;;;;;;;;5053121;28;20623;-80
2024/02/25 14:48:16;;;;;;;;;;;;;;;;;;5051705;28;19935;-77
2024/02/25 14:50:42;;;;;;;;;;;;;;;;;;5055925;28;20371;-79
2024/02/25 14:53:08;;;;;;;;;;;;;;;;;;5053049;28;20290;-80
2024/02/25 14:55:34;;;;;;;;;;;;;;;;;;5052474;28;20395;-86
2024/02/25 14:58:00;;;;;;;;;;;;;;;;;;5049310;28;20457;-75
2024/02/25 15:00:26;;;;;;;;;;;;;;;;;;5048516;28;20294;-76
2024/02/25 15:02:53;;;;;;;;;;;;;;;;;;5049541;28;19992;-75
2024/02/25 15:05:19;;;;;;;;;;;;;;;;;;5051298;28;19958;-76
2024/02/25 15:07:45;;;;;;;;;;;;;;;;;;5061287;28;19952;-76
2024/02/25 15:10:11;;;;;;;;;;;;;;;;;;5065185;28;19916;-76
2024/02/25 15:12:37;;;;;;;;;;;;;;;;;;5050019;28;19917;-76
2024/02/25 15:15:02;;;;;;;;;;;;;;;;;;5044986;28;19912;-76
2024/02/25 15:17:30;;;;;;;;;;;;;;;;;;5055896;28;19917;-76
2024/02/25 15:19:56;;;;;;;;;;;;;;;;;;5050177;28;19913;-77
2024/02/25 15:22:22;;;;;;;;;;;;;;;;;;5057267;28;20057;-76
2024/02/25 15:24:48;;;;;;;;;;;;;;;;;;5051531;28;19913;-77
2024/02/25 15:27:13;;;;;;;;;;;;;;;;;;5050307;28;19937;-76
2024/02/25 15:29:40;;;;;;;;;;;;;;;;;;5043514;28;19925;-77
2024/02/25 15:32:06;;;;;;;;;;;;;;;;;;5053460;28;20009;-76
2024/02/25 15:34:32;;;;;;;;;;;;;;;;;;5037577;28;20367;-76
2024/02/25 15:36:58;;;;;;;;;;;;;;;;;;5041003;28;20351;-76
2024/02/25 15:39:24;;;;;;;;;;;;;;;;;;5041097;28;20370;-76
2024/02/25 15:41:52;;;;;;;;;;;;;;;;;;5044080;28;19955;-76
2024/02/25 15:44:18;;;;;;;;;;;;;;;;;;5039295;28;20442;-77
2024/02/25 15:46:44;;;;;;;;;;;;;;;;;;5039761;28;20004;-76
2024/02/25 15:49:11;;;;;;;;;;;;;;;;;;5037207;28;19908;-76
2024/02/25 15:51:37;;;;;;;;;;;;;;;;;;5041424;28;19924;-77
2024/02/25 15:54:03;;;;;;;;;;;;;;;;;;5040202;28;19917;-76
2024/02/25 15:56:29;;;;;;;;;;;;;;;;;;5038371;28;19960;-77
2024/02/25 15:58:55;;;;;;;;;;;;;;;;;;5042729;28;20008;-76
2024/02/25 16:01:21;;;;;;;;;;;;;;;;;;5038240;28;19936;-76
2024/02/25 16:03:48;;;;;;;;;;;;;;;;;;5041276;28;19955;-76
2024/02/25 16:06:14;;;;;;;;;;;;;;;;;;5040382;28;19912;-77
2024/02/25 16:08:41;;;;;;;;;;;;;;;;;;5039395;28;19921;-76
2024/02/25 16:11:07;;;;;;;;;;;;;;;;;;5037957;28;19916;-76
2024/02/25 16:13:32;;;;;;;;;;;;;;;;;;5038703;28;19976;-77
2024/02/25 16:15:58;;;;;;;;;;;;;;;;;;5039223;28;19921;-77
2024/02/25 16:18:24;;;;;;;;;;;;;;;;;;5038620;28;19920;-77
2024/02/25 16:20:51;;;;;;;;;;;;;;;;;;5037763;28;19916;-77
2024/02/25 16:23:18;;;;;;;;;;;;;;;;;;5039266;28;19924;-76
2024/02/25 16:25:44;;;;;;;;;;;;;;;;;;5040680;28;19921;-77
2024/02/25 16:28:10;;;;;;;;;;;;;;;;;;5038716;28;20271;-77
2024/02/25 16:30:36;;;;;;;;;;;;;;;;;;5040184;28;19922;-76
2024/02/25 16:33:03;;;;;;;;;;;;;;;;;;5039795;28;19945;-77
2024/02/25 16:35:29;;;;;;;;;;;;;;;;;;5035449;28;19912;-77
2024/02/25 16:37:55;;;;;;;;;;;;;;;;;;5039989;28;19913;-76